General Carneiro, Brazil
Current Conditions -  °F | °C
As of 5:00 PM on Thursday 18 Dec 2014 (Local Time) from SBCY Reporting Station
Scattered Clouds Scattered Clouds  
Wind Chill: 82°   Ceiling: Unl
Heat Index: 87°   Visibility: 6mi
Dew Point: 72°   Wind: 9mph
Humidity: 70%   Direction: 320°NW
Pressure: 29.74"   Gusts: NA
Location:  15.71°S, 52.76°W
Report Text: SBCY 182000Z 32008KT 9999 FEW020 FEW025TCU SCT100 28/22 Q1007
Loading
Personal Weather Stations






























Interactive Weather Map New forecast layout! Learn more

10-Day Weather Forecast

Advertisements
Track Severe Weather on mobile